createdAt,value
2022-10-07T00:00:09.987Z,87447.80
2022-10-07T00:02:39.070Z,87445.40
2022-10-07T00:05:08.865Z,87444.40
2022-10-07T00:07:38.162Z,87445.80
2022-10-07T00:10:09.385Z,87443.20
2022-10-07T00:12:38.513Z,87443.80
2022-10-07T00:15:08.622Z,87446.40
2022-10-07T00:17:37.951Z,87448.40
2022-10-07T00:20:08.109Z,87445.80
2022-10-07T00:22:37.258Z,87444.80
2022-10-07T00:25:07.157Z,87445.20
2022-10-07T00:27:36.321Z,87449.20
2022-10-07T00:30:06.282Z,87449.40
2022-10-07T00:32:36.033Z,87449.60
2022-10-07T00:35:05.777Z,87443.00
2022-10-07T00:37:35.504Z,87448.00
2022-10-07T00:40:04.851Z,87452.40
2022-10-07T00:42:34.392Z,87452.00
2022-10-07T00:45:03.418Z,87454.80
2022-10-07T00:47:36.205Z,87456.60
2022-10-07T00:50:15.582Z,87455.80
2022-10-07T00:52:53.099Z,87457.00
2022-10-07T00:55:27.705Z,87457.80
2022-10-07T00:58:02.944Z,87459.20
2022-10-07T01:00:32.345Z,87465.20
2022-10-07T01:03:01.599Z,87461.00
2022-10-07T01:05:30.860Z,87457.60
2022-10-07T01:08:02.283Z,87452.80
2022-10-07T01:11:04.156Z,87454.80
2022-10-07T01:13:46.533Z,87459.80
2022-10-07T01:16:27.416Z,87463.00
2022-10-07T01:19:28.193Z,87465.20
2022-10-07T01:22:35.440Z,87464.60
2022-10-07T01:25:35.081Z,87468.20
2022-10-07T01:28:15.069Z,87473.60
2022-10-07T01:30:53.865Z,87471.20
2022-10-07T01:33:30.216Z,87473.00
2022-10-07T01:36:14.168Z,87478.60
2022-10-07T01:38:52.104Z,87480.60
2022-10-07T01:41:24.158Z,87481.00
2022-10-07T01:43:56.287Z,87484.20
2022-10-07T01:46:28.814Z,87487.20
2022-10-07T01:48:59.175Z,87484.60
2022-10-07T01:51:38.351Z,87490.40
2022-10-07T01:54:22.282Z,87487.40
2022-10-07T01:57:10.013Z,87490.60
2022-10-07T02:00:11.211Z,87494.60
2022-10-07T02:03:23.443Z,87496.80
2022-10-07T02:06:36.332Z,87506.20
2022-10-07T02:09:33.790Z,87511.80
2022-10-07T02:12:19.387Z,87512.20
2022-10-07T02:15:02.031Z,87515.00
2022-10-07T02:17:37.015Z,87516.40
2022-10-07T02:20:12.859Z,87518.60
2022-10-07T02:22:46.677Z,87517.20
2022-10-07T02:25:18.975Z,87523.20
2022-10-07T02:27:51.938Z,87522.00
2022-10-07T02:30:23.563Z,87527.80
2022-10-07T02:33:05.049Z,87525.20
2022-10-07T02:35:55.788Z,87527.80
2022-10-07T02:38:26.255Z,87532.00
2022-10-07T02:41:16.198Z,87538.40
2022-10-07T02:43:54.738Z,87539.00
2022-10-07T02:46:36.948Z,87543.80
2022-10-07T02:49:16.536Z,87543.00
2022-10-07T02:52:12.388Z,87546.40
2022-10-07T02:55:09.116Z,87547.80
2022-10-07T02:57:47.836Z,87542.80
2022-10-07T03:00:18.734Z,87546.00
2022-10-07T03:02:57.769Z,87550.20
2022-10-07T03:05:28.196Z,87556.60
2022-10-07T03:08:07.613Z,87556.80
2022-10-07T03:10:37.554Z,87552.40
2022-10-07T03:13:07.031Z,87557.40
2022-10-07T03:15:42.169Z,87560.60
2022-10-07T03:18:27.453Z,87564.20
2022-10-07T03:20:58.312Z,87565.40
2022-10-07T03:23:30.319Z,87568.00
2022-10-07T03:26:02.177Z,87565.40
2022-10-07T03:28:39.550Z,87572.40
2022-10-07T03:31:12.803Z,87574.00
2022-10-07T03:33:42.948Z,87574.20
2022-10-07T03:36:12.408Z,87569.80
2022-10-07T03:38:41.518Z,87574.80
2022-10-07T03:41:10.912Z,87580.60
2022-10-07T03:43:40.185Z,87583.60
2022-10-07T03:46:09.461Z,87586.20
2022-10-07T03:48:38.726Z,87584.00
2022-10-07T03:51:08.203Z,87583.00
2022-10-07T03:53:41.343Z,87584.40
2022-10-07T03:56:10.589Z,87580.20
2022-10-07T03:58:40.358Z,87580.60
2022-10-07T04:01:13.613Z,87580.60
2022-10-07T04:03:43.377Z,87582.60
2022-10-07T04:06:12.695Z,87586.20
2022-10-07T04:08:45.807Z,87587.80
2022-10-07T04:11:15.113Z,87589.20
2022-10-07T04:13:44.297Z,87589.00
2022-10-07T04:16:14.303Z,87590.80
2022-10-07T04:18:43.786Z,87593.20
2022-10-07T04:21:13.734Z,87594.40
2022-10-07T04:23:43.725Z,87592.40
2022-10-07T04:26:14.718Z,87597.20
2022-10-07T04:28:44.054Z,87602.20
2022-10-07T04:31:14.060Z,87605.20
2022-10-07T04:33:45.396Z,87607.60
2022-10-07T04:36:14.693Z,87607.60
2022-10-07T04:38:48.329Z,87614.00
2022-10-07T04:41:17.807Z,87620.40
2022-10-07T04:43:54.245Z,87620.00
2022-10-07T04:46:26.810Z,87622.20
2022-10-07T04:55:41.236Z,87635.40
2022-10-07T04:58:11.168Z,87637.00
2022-10-07T05:00:49.929Z,87638.80
2022-10-07T05:03:21.959Z,87641.00
2022-10-07T05:05:59.491Z,87646.80
2022-10-07T05:08:31.391Z,87641.40
2022-10-07T05:11:03.885Z,87644.60
2022-10-07T05:13:34.550Z,87648.00
2022-10-07T05:16:04.934Z,87649.60
2022-10-07T05:18:36.645Z,87651.20
2022-10-07T05:21:10.447Z,87651.40
2022-10-07T05:23:39.684Z,87650.20
2022-10-07T05:26:09.541Z,87652.80
2022-10-07T05:28:41.484Z,87657.40
2022-10-07T05:31:16.391Z,87660.60
2022-10-07T05:33:47.198Z,87659.00
2022-10-07T05:36:16.525Z,87661.00
2022-10-07T05:38:45.583Z,87665.80
2022-10-07T05:41:15.122Z,87666.80
2022-10-07T05:43:44.450Z,87668.20
2022-10-07T05:46:16.986Z,87673.00
2022-10-07T05:48:54.865Z,87673.80
2022-10-07T05:51:26.332Z,87672.00
2022-10-07T05:54:05.383Z,87666.40
2022-10-07T05:56:34.633Z,87662.80
2022-10-07T05:59:04.487Z,87668.40
2022-10-07T06:01:34.422Z,87672.60
2022-10-07T06:04:04.190Z,87667.80
2022-10-07T06:06:33.380Z,87668.00
2022-10-07T06:09:21.233Z,87673.20
2022-10-07T06:12:09.227Z,87672.00
2022-10-07T06:14:38.491Z,87673.00
2022-10-07T06:17:07.762Z,87677.00
2022-10-07T06:19:39.936Z,87677.40
2022-10-07T06:22:09.080Z,87679.20
2022-10-07T06:24:38.391Z,87682.80
2022-10-07T06:27:08.637Z,87683.80
2022-10-07T06:29:37.804Z,87684.60
2022-10-07T06:32:07.427Z,87690.20
2022-10-07T06:34:36.511Z,87693.20
2022-10-07T06:37:05.607Z,87688.00
2022-10-07T06:39:34.675Z,87695.20
2022-10-07T06:42:04.356Z,87690.40
2022-10-07T06:44:33.609Z,87695.40
2022-10-07T06:47:02.691Z,87689.60
2022-10-07T06:49:32.478Z,87698.60
2022-10-07T06:52:01.589Z,87700.60
2022-10-07T06:54:30.803Z,87705.20
2022-10-07T06:57:00.097Z,87703.80
2022-10-07T06:59:29.296Z,87703.20
2022-10-07T07:01:59.134Z,87706.20
2022-10-07T07:04:28.448Z,87702.80
2022-10-07T07:06:58.947Z,87705.80
2022-10-07T07:09:28.068Z,87707.60
2022-10-07T07:11:58.391Z,87703.60
2022-10-07T07:14:28.199Z,87702.80
2022-10-07T07:16:57.491Z,87702.40
2022-10-07T07:19:26.539Z,87698.40
2022-10-07T07:21:55.635Z,87697.00
2022-10-07T07:24:25.272Z,87699.80
2022-10-07T07:26:54.702Z,87700.80
2022-10-07T07:29:26.969Z,87698.00
2022-10-07T07:31:56.197Z,87701.40
2022-10-07T07:34:25.753Z,87698.00
2022-10-07T07:36:54.918Z,87700.20
2022-10-07T07:39:24.051Z,87699.40
2022-10-07T07:41:53.669Z,87699.00
2022-10-07T07:44:24.450Z,87702.40
2022-10-07T07:46:53.789Z,87707.80
2022-10-07T07:49:24.503Z,87708.80
2022-10-07T07:51:53.637Z,87708.80
2022-10-07T07:54:23.645Z,87717.40
2022-10-07T07:56:53.258Z,87712.60
2022-10-07T07:59:22.812Z,87716.60
2022-10-07T08:01:52.395Z,87712.60
2022-10-07T08:04:22.110Z,87714.80
2022-10-07T08:06:51.501Z,87714.60
2022-10-07T08:09:20.825Z,87712.00
2022-10-07T08:11:50.310Z,87712.60
2022-10-07T08:14:19.704Z,87715.20
2022-10-07T08:16:49.670Z,87716.20
2022-10-07T08:19:19.114Z,87717.60
2022-10-07T08:21:48.294Z,87716.60
2022-10-07T08:24:17.388Z,87721.40
2022-10-07T08:26:48.415Z,87721.00
2022-10-07T08:29:19.138Z,87724.80
2022-10-07T08:31:49.960Z,87723.80
2022-10-07T08:34:19.229Z,87723.80
2022-10-07T08:36:50.306Z,87729.20
2022-10-07T08:39:22.366Z,87726.80
2022-10-07T08:42:15.775Z,87725.60
2022-10-07T08:44:51.949Z,87729.60
2022-10-07T08:47:39.634Z,87728.20
2022-10-07T08:50:20.043Z,87727.40
2022-10-07T08:52:57.568Z,87725.80
2022-10-07T08:55:52.928Z,87727.40
2022-10-07T08:58:42.081Z,87730.40
2022-10-07T09:01:39.771Z,87724.60
2022-10-07T09:05:07.404Z,87729.60
2022-10-07T09:08:00.367Z,87729.60
2022-10-07T09:10:54.591Z,87734.20
2022-10-07T09:13:34.079Z,87734.20
2022-10-07T09:16:17.620Z,87737.00
2022-10-07T09:18:57.908Z,87737.40
2022-10-07T09:21:43.574Z,87737.40
2022-10-07T09:24:25.487Z,87738.80
2022-10-07T09:27:00.264Z,87741.60
2022-10-07T09:29:32.106Z,87743.00
2022-10-07T09:32:01.481Z,87747.80
2022-10-07T09:34:33.000Z,87747.00
2022-10-07T09:37:27.832Z,87744.20
2022-10-07T09:40:23.179Z,87746.00
2022-10-07T09:42:53.178Z,87744.20
2022-10-07T09:45:34.511Z,87746.20
2022-10-07T09:48:29.772Z,87749.20
2022-10-07T09:51:21.297Z,87744.20
2022-10-07T09:54:20.678Z,87746.20
2022-10-07T09:57:00.688Z,87749.40
2022-10-07T09:59:36.120Z,87750.40
2022-10-07T10:02:26.253Z,87753.40
2022-10-07T10:04:59.766Z,87748.20
2022-10-07T10:07:40.046Z,87748.60
2022-10-07T10:10:30.850Z,87748.00
2022-10-07T10:13:02.348Z,87747.60
2022-10-07T10:15:44.455Z,87746.00
2022-10-07T10:18:38.394Z,87747.80
2022-10-07T10:21:39.162Z,87749.00
2022-10-07T10:24:16.552Z,87750.20
2022-10-07T10:27:10.520Z,87750.60
2022-10-07T10:30:13.641Z,87748.20
2022-10-07T10:33:16.026Z,87749.40
2022-10-07T10:36:11.758Z,87749.60
2022-10-07T10:39:03.678Z,87746.00
2022-10-07T10:41:56.123Z,87741.20
2022-10-07T10:44:50.961Z,87746.00
2022-10-07T10:47:54.598Z,87748.80
2022-10-07T10:50:36.904Z,87753.00
2022-10-07T10:53:35.592Z,87752.00
2022-10-07T10:56:26.022Z,87750.60
2022-10-07T10:59:24.994Z,87753.80
2022-10-07T11:02:30.730Z,87751.80
2022-10-07T11:05:22.143Z,87754.00
2022-10-07T11:08:11.046Z,87753.80
2022-10-07T11:10:56.908Z,87751.80
2022-10-07T11:13:37.873Z,87751.00
2022-10-07T11:16:13.149Z,87750.60
2022-10-07T11:19:01.933Z,87746.40
2022-10-07T11:21:41.193Z,87744.40
2022-10-07T11:24:32.592Z,87740.40
2022-10-07T11:27:18.517Z,87745.60
2022-10-07T11:30:11.302Z,87744.20
2022-10-07T11:33:13.205Z,87744.80
2022-10-07T11:36:00.670Z,87743.60
2022-10-07T11:38:35.552Z,87738.20
2022-10-07T11:41:35.487Z,87743.40
2022-10-07T11:44:15.389Z,87739.80
2022-10-07T11:46:48.585Z,87742.20
2022-10-07T11:50:03.694Z,87737.60
2022-10-07T11:52:41.292Z,87738.20
2022-10-07T11:55:26.732Z,87742.40
2022-10-07T11:58:00.751Z,87744.00
2022-10-07T12:00:38.461Z,87745.20
2022-10-07T12:03:35.796Z,87739.60
2022-10-07T12:06:12.853Z,87745.20
2022-10-07T12:08:45.208Z,87740.80
2022-10-07T12:11:14.366Z,87740.40
2022-10-07T12:13:46.634Z,87743.80
2022-10-07T12:16:34.009Z,87742.40
2022-10-07T12:19:09.875Z,87740.60
2022-10-07T12:22:19.005Z,87742.80
2022-10-07T12:25:30.385Z,87741.40
2022-10-07T12:28:00.602Z,87741.00
2022-10-07T12:30:54.593Z,87742.40
2022-10-07T12:33:44.703Z,87736.40
2022-10-07T12:36:25.494Z,87740.60
2022-10-07T12:39:00.822Z,87742.20
2022-10-07T12:41:49.626Z,87743.00
2022-10-07T12:44:52.265Z,87744.80
2022-10-07T12:47:31.252Z,87739.40
2022-10-07T12:50:11.543Z,87745.40
2022-10-07T12:53:02.084Z,87740.80
2022-10-07T12:55:44.201Z,87746.40
2022-10-07T12:59:08.105Z,87751.20
2022-10-07T13:02:26.440Z,87750.40
2022-10-07T13:05:32.872Z,87749.20
2022-10-07T13:08:56.934Z,87749.20
2022-10-07T13:11:45.514Z,87753.40
2022-10-07T13:14:51.613Z,87754.20
2022-10-07T13:17:36.586Z,87752.00
2022-10-07T13:20:43.552Z,87754.40
2022-10-07T13:23:27.049Z,87751.60
2022-10-07T13:26:00.517Z,87751.20
2022-10-07T13:28:56.772Z,87750.60
2022-10-07T13:31:32.593Z,87755.40
2022-10-07T13:34:17.488Z,87758.20
2022-10-07T13:36:47.071Z,87761.40
2022-10-07T13:39:24.881Z,87762.40
2022-10-07T13:42:04.110Z,87760.60
2022-10-07T13:44:34.326Z,87764.20
2022-10-07T13:47:08.248Z,87762.60
2022-10-07T13:49:45.180Z,87762.80
2022-10-07T13:52:39.088Z,87763.60
2022-10-07T13:55:31.250Z,87762.40
2022-10-07T13:58:05.404Z,87761.80
2022-10-07T14:00:43.298Z,87759.60
2022-10-07T14:03:18.109Z,87761.00
2022-10-07T14:05:53.966Z,87762.60
2022-10-07T14:08:28.999Z,87767.00
2022-10-07T14:11:23.099Z,87772.80
2022-10-07T14:13:52.551Z,87771.00
2022-10-07T14:16:23.470Z,87769.60
2022-10-07T14:18:53.892Z,87770.20
2022-10-07T14:21:23.052Z,87774.80
2022-10-07T14:23:52.503Z,87780.60
2022-10-07T14:26:22.166Z,87781.40
2022-10-07T14:28:51.592Z,87780.60
2022-10-07T14:31:43.846Z,87778.20
2022-10-07T14:34:41.199Z,87781.40
2022-10-07T14:37:19.560Z,87783.20
2022-10-07T14:39:54.451Z,87778.40
2022-10-07T14:42:39.614Z,87771.80
2022-10-07T14:45:17.050Z,87769.60
2022-10-07T14:47:47.587Z,87774.80
2022-10-07T14:50:20.861Z,87767.80
2022-10-07T14:52:53.055Z,87776.80
2022-10-07T14:55:29.871Z,87775.20
2022-10-07T14:57:58.958Z,87777.00
2022-10-07T15:00:36.063Z,87773.60
2022-10-07T15:03:08.150Z,87779.00
2022-10-07T15:05:38.738Z,87779.40
2022-10-07T15:08:07.877Z,87777.60
2022-10-07T15:10:37.029Z,87782.00
2022-10-07T15:13:12.358Z,87787.80
2022-10-07T15:15:46.049Z,87783.80
2022-10-07T15:18:15.618Z,87782.40
2022-10-07T15:20:44.846Z,87781.40
2022-10-07T15:23:16.056Z,87782.80
2022-10-07T15:25:45.432Z,87780.20
2022-10-07T15:28:15.781Z,87780.60
2022-10-07T15:30:44.944Z,87778.20
2022-10-07T15:33:14.368Z,87778.00
2022-10-07T15:35:45.670Z,87775.60
2022-10-07T15:38:14.925Z,87778.40
2022-10-07T15:40:59.333Z,87773.60
2022-10-07T15:43:28.561Z,87773.80
2022-10-07T15:46:00.052Z,87772.40
2022-10-07T15:48:30.879Z,87768.20
2022-10-07T15:51:00.288Z,87770.60
2022-10-07T15:53:30.231Z,87766.80
2022-10-07T15:56:00.076Z,87768.40
2022-10-07T15:58:33.025Z,87764.60
2022-10-07T16:01:09.258Z,87767.00
2022-10-07T16:03:44.150Z,87762.20
2022-10-07T16:06:24.416Z,87760.00
2022-10-07T16:08:59.121Z,87761.40
2022-10-07T16:11:30.805Z,87758.80
2022-10-07T16:14:03.072Z,87759.00
2022-10-07T16:16:33.589Z,87755.00
2022-10-07T16:19:03.711Z,87757.20
2022-10-07T16:21:42.940Z,87753.20
2022-10-07T16:24:24.331Z,87747.00
2022-10-07T16:26:54.358Z,87741.60
2022-10-07T16:29:43.765Z,87741.80
2022-10-07T16:32:13.914Z,87739.80
2022-10-07T16:34:45.537Z,87736.80
2022-10-07T16:37:16.330Z,87730.60
2022-10-07T16:39:45.664Z,87732.60
2022-10-07T16:42:14.833Z,87729.60
2022-10-07T16:44:47.282Z,87731.40
2022-10-07T16:47:19.119Z,87727.20
2022-10-07T16:49:48.583Z,87724.00
2022-10-07T16:52:17.728Z,87724.60
2022-10-07T16:54:47.097Z,87722.60
2022-10-07T16:57:16.795Z,87722.80
2022-10-07T16:59:45.923Z,87721.60
2022-10-07T17:02:15.130Z,87723.60
2022-10-07T17:04:44.183Z,87719.60
2022-10-07T17:07:13.619Z,87713.00
2022-10-07T17:09:42.960Z,87709.00
2022-10-07T17:12:12.220Z,87707.00
2022-10-07T17:14:41.602Z,87707.20
2022-10-07T17:17:10.758Z,87703.00
2022-10-07T17:19:40.701Z,87698.80
2022-10-07T17:22:10.907Z,87691.20
2022-10-07T17:24:40.220Z,87690.60
2022-10-07T17:27:09.945Z,87685.00
2022-10-07T17:29:39.551Z,87686.60
2022-10-07T17:32:10.929Z,87681.80
2022-10-07T17:34:45.163Z,87677.40
2022-10-07T17:37:14.826Z,87679.00
2022-10-07T17:39:44.717Z,87675.40
2022-10-07T17:42:13.946Z,87680.00
2022-10-07T17:44:43.319Z,87676.00
2022-10-07T17:47:12.642Z,87673.00
2022-10-07T17:49:42.000Z,87669.00
2022-10-07T17:52:17.509Z,87663.80
2022-10-07T17:54:46.660Z,87660.40
2022-10-07T17:57:15.848Z,87664.60
2022-10-07T17:59:45.316Z,87654.60
2022-10-07T18:02:14.382Z,87654.80
2022-10-07T18:04:43.898Z,87649.40
2022-10-07T18:07:13.720Z,87641.40
2022-10-07T18:09:42.780Z,87643.20
2022-10-07T18:12:30.890Z,87644.00
2022-10-07T18:15:18.506Z,87639.20
2022-10-07T18:17:52.902Z,87636.20
2022-10-07T18:20:26.238Z,87633.40
2022-10-07T18:22:59.727Z,87632.80
2022-10-07T18:25:31.930Z,87631.00
2022-10-07T18:28:02.797Z,87627.00
2022-10-07T18:30:32.203Z,87619.40
2022-10-07T18:33:02.630Z,87615.80
2022-10-07T18:35:31.645Z,87613.20
2022-10-07T18:38:00.731Z,87607.00
2022-10-07T18:40:30.218Z,87602.60
2022-10-07T18:42:59.518Z,87600.20
2022-10-07T18:45:28.575Z,87598.80
2022-10-07T18:47:58.191Z,87600.20
2022-10-07T18:50:32.703Z,87592.80
2022-10-07T18:53:02.870Z,87591.80
2022-10-07T18:55:32.073Z,87583.00
2022-10-07T18:58:01.361Z,87580.20
2022-10-07T19:00:30.879Z,87580.80
2022-10-07T19:03:00.166Z,87576.60
2022-10-07T19:05:33.664Z,87574.60
2022-10-07T19:08:03.265Z,87571.80
2022-10-07T19:10:32.436Z,87566.40
2022-10-07T19:13:20.845Z,87561.00
2022-10-07T19:15:50.243Z,87562.20
2022-10-07T19:18:20.220Z,87557.00
2022-10-07T19:21:00.329Z,87554.20
2022-10-07T19:23:30.597Z,87550.60
2022-10-07T19:26:02.795Z,87548.40
2022-10-07T19:28:32.042Z,87543.80
2022-10-07T19:31:11.348Z,87536.80
2022-10-07T19:33:40.309Z,87534.00
2022-10-07T19:36:11.193Z,87530.40
2022-10-07T19:38:46.950Z,87530.80
2022-10-07T19:41:18.590Z,87526.60
2022-10-07T19:43:49.386Z,87520.00
2022-10-07T19:46:20.746Z,87525.20
2022-10-07T19:48:51.070Z,87522.20
2022-10-07T19:51:21.557Z,87522.00
2022-10-07T19:53:52.362Z,87519.40
2022-10-07T19:56:29.338Z,87516.00
2022-10-07T19:59:02.168Z,87505.40
2022-10-07T20:01:35.200Z,87504.20
2022-10-07T20:04:10.047Z,87498.40
2022-10-07T20:06:40.054Z,87492.20
2022-10-07T20:09:14.139Z,87492.60
2022-10-07T20:11:44.597Z,87492.00
2022-10-07T20:14:17.070Z,87485.40
2022-10-07T20:16:46.524Z,87484.20
2022-10-07T20:19:20.542Z,87482.60
2022-10-07T20:21:50.693Z,87475.80
2022-10-07T20:24:19.804Z,87471.80
2022-10-07T20:26:49.014Z,87468.20
2022-10-07T20:29:22.703Z,87468.40
2022-10-07T20:31:54.692Z,87462.80
2022-10-07T20:34:24.254Z,87461.60
2022-10-07T20:36:55.768Z,87458.20
2022-10-07T20:39:43.851Z,87456.00
2022-10-07T20:42:22.868Z,87453.00
2022-10-07T20:44:53.398Z,87446.00
2022-10-07T20:47:24.871Z,87447.00
2022-10-07T20:49:57.462Z,87439.20
2022-10-07T20:52:31.095Z,87430.80
2022-10-07T20:55:00.613Z,87424.80
2022-10-07T20:57:39.003Z,87427.40
2022-10-07T21:00:17.032Z,87420.40
2022-10-07T21:02:46.407Z,87417.00
2022-10-07T21:05:16.106Z,87416.20
2022-10-07T21:07:45.487Z,87410.00
2022-10-07T21:10:14.869Z,87405.60
2022-10-07T21:12:45.823Z,87396.80
2022-10-07T21:15:15.576Z,87396.60
2022-10-07T21:17:46.975Z,87393.40
2022-10-07T21:20:16.246Z,87391.80
2022-10-07T21:22:45.402Z,87392.40
2022-10-07T21:25:14.999Z,87389.20
2022-10-07T21:27:44.004Z,87386.20
2022-10-07T21:30:13.625Z,87384.20
2022-10-07T21:32:43.610Z,87382.00
2022-10-07T21:35:13.077Z,87378.80
2022-10-07T21:37:42.659Z,87376.80
2022-10-07T21:40:12.223Z,87374.00
2022-10-07T21:42:41.369Z,87370.40
2022-10-07T21:45:11.126Z,87368.60
2022-10-07T21:47:40.452Z,87362.60
2022-10-07T21:50:10.854Z,87361.00
2022-10-07T21:52:40.144Z,87359.60
2022-10-07T21:55:09.971Z,87357.20
2022-10-07T21:57:41.521Z,87353.40
2022-10-07T22:00:13.495Z,87356.40
2022-10-07T22:02:43.084Z,87355.00
2022-10-07T22:05:12.799Z,87354.00
2022-10-07T22:08:00.871Z,87350.20
2022-10-07T22:10:30.359Z,87350.40
2022-10-07T22:12:59.868Z,87343.20
2022-10-07T22:15:29.846Z,87339.60
2022-10-07T22:17:59.207Z,87340.60
2022-10-07T22:20:28.675Z,87333.60
2022-10-07T22:22:59.953Z,87332.80
2022-10-07T22:25:29.245Z,87334.00
2022-10-07T22:27:59.153Z,87331.60
2022-10-07T22:30:29.303Z,87332.40
2022-10-07T22:32:58.454Z,87331.20
2022-10-07T22:35:35.016Z,87328.60
2022-10-07T22:38:04.665Z,87331.40
2022-10-07T22:40:37.142Z,87331.20
2022-10-07T22:43:07.545Z,87328.00
2022-10-07T22:45:37.392Z,87328.20
2022-10-07T22:48:07.531Z,87319.80
2022-10-07T22:50:37.544Z,87322.80
2022-10-07T22:53:06.699Z,87320.60
2022-10-07T22:55:38.523Z,87319.00
2022-10-07T22:58:08.024Z,87315.20
2022-10-07T23:00:37.290Z,87313.60
2022-10-07T23:03:07.630Z,87306.20
2022-10-07T23:05:40.796Z,87306.40
2022-10-07T23:08:10.910Z,87306.00
2022-10-07T23:10:40.352Z,87304.80
2022-10-07T23:13:09.358Z,87307.40
2022-10-07T23:15:39.140Z,87302.00
2022-10-07T23:18:08.545Z,87300.00
2022-10-07T23:20:37.853Z,87301.20
2022-10-07T23:23:07.670Z,87298.60
2022-10-07T23:25:42.716Z,87299.20
2022-10-07T23:28:12.745Z,87298.40
2022-10-07T23:30:41.939Z,87297.00
2022-10-07T23:33:12.215Z,87297.80
2022-10-07T23:35:43.240Z,87296.40
2022-10-07T23:38:12.870Z,87294.40
2022-10-07T23:40:42.172Z,87290.80
2022-10-07T23:43:12.318Z,87289.60
2022-10-07T23:45:41.589Z,87290.60
2022-10-07T23:48:11.190Z,87289.80
2022-10-07T23:50:48.057Z,87288.20
2022-10-07T23:53:18.557Z,87286.40
2022-10-07T23:55:56.825Z,87288.80
2022-10-07T23:58:29.775Z,87287.80
